createdAt,value
2022-11-06T00:00:30.216Z,6.47
2022-11-06T00:03:01.459Z,6.47
2022-11-06T00:05:48.437Z,6.50
2022-11-06T00:08:16.707Z,6.40
2022-11-06T00:10:44.141Z,6.78
2022-11-06T00:13:11.202Z,6.60
2022-11-06T00:15:38.444Z,6.95
2022-11-06T00:18:05.479Z,6.35
2022-11-06T00:20:32.767Z,6.50
2022-11-06T00:23:00.860Z,7.10
2022-11-06T00:25:28.222Z,6.82
2022-11-06T00:27:55.306Z,6.93
2022-11-06T00:30:22.593Z,6.65
2022-11-06T00:32:49.746Z,6.90
2022-11-06T00:35:17.132Z,7.28
2022-11-06T00:37:44.262Z,6.68
2022-11-06T00:40:12.421Z,6.63
2022-11-06T00:42:39.355Z,6.60
2022-11-06T00:45:07.266Z,6.90
2022-11-06T00:47:34.342Z,6.65
2022-11-06T00:50:06.593Z,6.95
2022-11-06T00:52:33.627Z,6.57
2022-11-06T00:55:00.922Z,6.60
2022-11-06T00:57:28.004Z,6.72
2022-11-06T00:59:55.367Z,6.70
2022-11-06T01:02:22.459Z,6.60
2022-11-06T01:04:49.858Z,7.70
2022-11-06T01:07:19.283Z,6.82
2022-11-06T01:09:46.994Z,6.13
2022-11-06T01:12:14.543Z,6.55
2022-11-06T01:14:43.754Z,6.50
2022-11-06T01:17:11.290Z,6.90
2022-11-06T01:19:38.789Z,6.18
2022-11-06T01:22:05.889Z,6.75
2022-11-06T01:24:33.446Z,6.45
2022-11-06T01:29:48.156Z,6.25
2022-11-06T01:32:15.234Z,6.45
2022-11-06T01:34:42.603Z,6.13
2022-11-06T01:37:14.287Z,6.75
2022-11-06T01:39:42.758Z,6.75
2022-11-06T01:42:12.566Z,6.82
2022-11-06T01:44:42.949Z,6.75
2022-11-06T01:47:36.682Z,7.72
2022-11-06T01:50:11.314Z,6.82
2022-11-06T01:52:39.135Z,7.43
2022-11-06T01:55:17.557Z,7.60
2022-11-06T01:57:45.154Z,7.00
2022-11-06T02:00:13.203Z,6.72
2022-11-06T02:02:43.227Z,6.57
2022-11-06T02:05:11.309Z,6.30
2022-11-06T02:07:40.289Z,6.57
2022-11-06T02:10:08.101Z,6.50
2022-11-06T02:12:57.881Z,6.00
2022-11-06T02:15:39.217Z,5.60
2022-11-06T02:18:38.543Z,5.95
2022-11-06T02:21:41.003Z,6.15
2022-11-06T02:24:40.271Z,7.05
2022-11-06T02:27:12.644Z,6.40
2022-11-06T02:29:48.835Z,6.75
2022-11-06T02:32:27.416Z,6.70
2022-11-06T02:34:56.241Z,6.55
2022-11-06T02:37:30.489Z,7.18
2022-11-06T02:40:00.551Z,7.07
2022-11-06T02:42:30.672Z,6.03
2022-11-06T02:44:59.572Z,6.18
2022-11-06T02:47:32.451Z,6.70
2022-11-06T02:50:24.559Z,6.50
2022-11-06T02:53:00.163Z,6.90
2022-11-06T02:55:37.419Z,5.57
2022-11-06T02:58:12.895Z,6.80
2022-11-06T03:00:45.267Z,7.45
2022-11-06T03:03:37.257Z,7.75
2022-11-06T03:06:10.867Z,7.70
2022-11-06T03:08:50.206Z,7.82
2022-11-06T03:11:30.244Z,8.20
2022-11-06T03:14:00.502Z,9.10
2022-11-06T03:16:49.830Z,9.38
2022-11-06T03:19:23.046Z,9.27
2022-11-06T03:22:11.906Z,9.52
2022-11-06T03:24:45.200Z,9.70
2022-11-06T03:27:29.054Z,9.88
2022-11-06T03:30:16.274Z,9.45
2022-11-06T03:32:43.515Z,10.95
2022-11-06T03:35:26.431Z,10.23
2022-11-06T03:38:09.561Z,10.68
2022-11-06T03:40:50.220Z,10.35
2022-11-06T03:43:23.078Z,11.40
2022-11-06T03:45:53.222Z,11.10
2022-11-06T03:48:26.996Z,11.45
2022-11-06T03:51:20.797Z,11.93
2022-11-06T03:53:59.338Z,11.07
2022-11-06T03:56:33.909Z,11.25
2022-11-06T03:59:04.761Z,10.85
2022-11-06T04:01:37.563Z,11.23
2022-11-06T04:04:16.040Z,11.52
2022-11-06T04:06:49.770Z,12.27
2022-11-06T04:09:39.213Z,11.77
2022-11-06T04:12:32.101Z,11.77
2022-11-06T04:15:00.150Z,11.82
2022-11-06T04:17:30.062Z,11.82
2022-11-06T04:20:00.684Z,12.52
2022-11-06T04:22:53.661Z,12.48
2022-11-06T04:25:42.080Z,12.30
2022-11-06T04:28:43.771Z,12.02
2022-11-06T04:31:22.769Z,11.60
2022-11-06T04:34:02.684Z,11.93
2022-11-06T04:36:47.658Z,11.13
2022-11-06T04:39:22.889Z,11.07
2022-11-06T04:42:05.392Z,8.47
2022-11-06T04:44:38.623Z,11.40
2022-11-06T04:47:09.377Z,12.50
2022-11-06T04:49:41.903Z,12.63
2022-11-06T04:52:13.461Z,12.75
2022-11-06T04:54:41.168Z,13.05
2022-11-06T04:57:08.219Z,13.85
2022-11-06T04:59:37.396Z,14.63
2022-11-06T05:02:05.501Z,13.70
2022-11-06T05:04:33.877Z,15.57
2022-11-06T05:07:00.933Z,15.50
2022-11-06T05:09:28.375Z,14.68
2022-11-06T05:11:55.337Z,15.15
2022-11-06T05:14:22.725Z,15.55
2022-11-06T05:16:49.631Z,16.67
2022-11-06T05:19:16.988Z,16.00
2022-11-06T05:22:02.261Z,16.58
2022-11-06T05:24:31.808Z,16.65
2022-11-06T05:26:59.801Z,16.70
2022-11-06T05:29:27.732Z,17.33
2022-11-06T05:31:54.875Z,17.70
2022-11-06T05:34:22.173Z,17.42
2022-11-06T05:36:52.081Z,18.45
2022-11-06T05:39:19.353Z,18.58
2022-11-06T05:41:46.296Z,18.35
2022-11-06T05:44:13.730Z,18.63
2022-11-06T05:46:49.556Z,18.77
2022-11-06T05:49:18.797Z,19.50
2022-11-06T05:51:46.662Z,19.58
2022-11-06T05:54:14.664Z,18.02
2022-11-06T05:56:41.788Z,18.33
2022-11-06T05:59:09.179Z,18.48
2022-11-06T06:01:36.178Z,18.38
2022-11-06T06:04:03.819Z,19.10
2022-11-06T06:06:31.022Z,18.58
2022-11-06T06:08:58.319Z,19.17
2022-11-06T06:11:25.271Z,18.80
2022-11-06T06:13:55.349Z,18.10
2022-11-06T06:16:22.305Z,18.63
2022-11-06T06:18:51.108Z,18.63
2022-11-06T06:21:18.365Z,18.08
2022-11-06T06:23:45.724Z,18.63
2022-11-06T06:26:12.722Z,18.83
2022-11-06T06:28:40.076Z,17.80
2022-11-06T06:31:08.046Z,20.95
2022-11-06T06:33:35.710Z,23.05
2022-11-06T06:36:04.566Z,21.25
2022-11-06T06:38:31.865Z,17.45
2022-11-06T06:41:08.947Z,16.63
2022-11-06T06:43:36.776Z,16.05
2022-11-06T06:46:06.598Z,14.45
2022-11-06T06:48:34.417Z,14.90
2022-11-06T06:51:03.264Z,13.07
2022-11-06T06:53:31.032Z,14.05
2022-11-06T06:55:59.653Z,14.35
2022-11-06T06:58:27.738Z,13.75
2022-11-06T07:00:58.818Z,13.32
2022-11-06T07:03:26.205Z,13.55
2022-11-06T07:05:55.508Z,14.38
2022-11-06T07:08:25.130Z,14.15
2022-11-06T07:10:52.428Z,13.23
2022-11-06T07:13:19.787Z,12.93
2022-11-06T07:15:46.784Z,13.15
2022-11-06T07:18:14.628Z,12.75
2022-11-06T07:20:43.973Z,12.90
2022-11-06T07:23:11.436Z,13.07
2022-11-06T07:25:38.476Z,13.13
2022-11-06T07:28:07.625Z,12.88
2022-11-06T07:30:36.381Z,13.02
2022-11-06T07:33:05.177Z,13.35
2022-11-06T07:35:33.765Z,12.80
2022-11-06T07:38:06.046Z,13.02
2022-11-06T07:40:36.809Z,12.65
2022-11-06T07:43:08.973Z,12.00
2022-11-06T07:45:37.007Z,11.65
2022-11-06T07:48:10.107Z,11.13
2022-11-06T07:50:37.164Z,11.48
2022-11-06T07:53:04.620Z,11.65
2022-11-06T07:55:31.623Z,12.02
2022-11-06T07:57:59.652Z,10.93
2022-11-06T08:00:26.712Z,11.80
2022-11-06T08:02:56.525Z,12.02
2022-11-06T08:05:23.614Z,12.07
2022-11-06T08:07:56.464Z,11.80
2022-11-06T08:10:23.517Z,12.63
2022-11-06T08:12:50.825Z,12.57
2022-11-06T08:15:17.826Z,12.18
2022-11-06T08:17:45.142Z,12.48
2022-11-06T08:20:12.145Z,13.10
2022-11-06T08:22:39.537Z,12.85
2022-11-06T08:25:07.284Z,13.10
2022-11-06T08:27:34.969Z,13.25
2022-11-06T08:30:02.548Z,12.50
2022-11-06T08:32:32.252Z,13.88
2022-11-06T08:34:59.217Z,14.80
2022-11-06T08:37:26.842Z,14.88
2022-11-06T08:39:53.831Z,13.40
2022-11-06T08:42:21.256Z,13.35
2022-11-06T08:44:48.304Z,13.25
2022-11-06T08:47:15.607Z,13.98
2022-11-06T08:49:42.711Z,14.02
2022-11-06T08:52:10.918Z,14.00
2022-11-06T08:54:38.468Z,14.07
2022-11-06T08:57:08.021Z,14.13
2022-11-06T08:59:38.164Z,15.27
2022-11-06T09:02:05.577Z,14.40
2022-11-06T09:04:35.086Z,15.25
2022-11-06T09:07:04.702Z,13.60
2022-11-06T09:09:34.448Z,13.70
2022-11-06T09:12:02.470Z,13.23
2022-11-06T09:14:31.267Z,12.13
2022-11-06T09:16:58.632Z,12.40
2022-11-06T09:19:25.738Z,11.75
2022-11-06T09:21:54.847Z,11.35
2022-11-06T09:24:43.617Z,11.00
2022-11-06T09:27:12.429Z,9.70
2022-11-06T09:29:44.194Z,9.07
2022-11-06T09:32:11.750Z,7.47
2022-11-06T09:34:39.012Z,7.03
2022-11-06T09:37:06.519Z,6.25
2022-11-06T09:39:33.464Z,5.70
2022-11-06T09:42:28.861Z,6.45
2022-11-06T09:45:17.281Z,5.30
2022-11-06T09:47:50.191Z,6.90
2022-11-06T09:50:23.954Z,7.05
2022-11-06T09:53:07.692Z,7.45
2022-11-06T09:55:40.269Z,7.90
2022-11-06T09:58:33.667Z,8.98
2022-11-06T10:01:19.538Z,9.07
2022-11-06T10:04:04.335Z,9.20
2022-11-06T10:06:33.063Z,10.10
2022-11-06T10:09:04.136Z,9.32
2022-11-06T10:11:34.223Z,9.02
2022-11-06T10:14:05.824Z,9.38
2022-11-06T10:16:42.873Z,9.52
2022-11-06T10:19:31.413Z,7.97
2022-11-06T10:22:14.909Z,8.68
2022-11-06T10:24:47.931Z,9.57
2022-11-06T10:27:17.030Z,9.30
2022-11-06T10:30:03.371Z,8.48
2022-11-06T10:32:53.132Z,6.32
2022-11-06T10:35:45.596Z,6.78
2022-11-06T10:38:16.162Z,7.13
2022-11-06T10:40:46.623Z,7.72
2022-11-06T10:43:25.251Z,7.38
2022-11-06T10:46:02.081Z,7.43
2022-11-06T10:48:41.622Z,7.35
2022-11-06T10:51:38.699Z,6.97
2022-11-06T10:54:33.446Z,5.90
2022-11-06T10:57:40.038Z,5.97
2022-11-06T11:00:13.413Z,6.77
2022-11-06T11:02:46.279Z,6.15
2022-11-06T11:05:16.427Z,5.97
2022-11-06T11:07:46.839Z,5.07
2022-11-06T11:10:25.982Z,5.53
2022-11-06T11:12:56.294Z,5.35
2022-11-06T11:15:26.337Z,5.00
2022-11-06T11:18:13.173Z,4.93
2022-11-06T11:20:47.347Z,5.07
2022-11-06T11:23:18.836Z,4.25
2022-11-06T11:25:58.749Z,4.47
2022-11-06T11:28:33.266Z,4.65
2022-11-06T11:31:11.282Z,4.57
2022-11-06T11:33:51.761Z,4.57
2022-11-06T11:36:19.599Z,4.55
2022-11-06T11:38:48.647Z,4.28
2022-11-06T11:41:19.670Z,4.38
2022-11-06T11:44:14.252Z,4.13
2022-11-06T11:46:50.278Z,5.15
2022-11-06T11:49:32.919Z,4.97
2022-11-06T11:52:12.015Z,4.25
2022-11-06T11:55:49.999Z,4.40
2022-11-06T11:58:28.632Z,5.00
2022-11-06T12:01:00.472Z,4.68
2022-11-06T12:03:34.786Z,4.97
2022-11-06T12:06:09.796Z,4.47
2022-11-06T12:08:41.954Z,4.60
2022-11-06T12:11:16.217Z,6.95
2022-11-06T12:13:43.875Z,5.05
2022-11-06T12:16:17.224Z,5.32
2022-11-06T12:18:50.755Z,4.60
2022-11-06T12:21:27.859Z,6.95
2022-11-06T12:24:04.080Z,5.57
2022-11-06T12:26:42.080Z,5.03
2022-11-06T12:29:33.799Z,5.65
2022-11-06T12:32:38.348Z,8.57
2022-11-06T12:35:24.754Z,9.05
2022-11-06T12:37:55.701Z,6.32
2022-11-06T12:40:33.071Z,4.95
2022-11-06T12:43:03.270Z,4.28
2022-11-06T12:45:50.861Z,4.32
2022-11-06T12:48:55.842Z,4.10
2022-11-06T12:51:42.233Z,4.20
2022-11-06T12:54:34.088Z,3.53
2022-11-06T12:57:02.854Z,3.30
2022-11-06T12:59:46.380Z,3.08
2022-11-06T13:02:23.972Z,3.08
2022-11-06T13:05:04.141Z,3.10
2022-11-06T13:07:43.160Z,3.17
2022-11-06T13:10:49.198Z,2.92
2022-11-06T13:13:25.467Z,3.15
2022-11-06T13:16:16.795Z,2.70
2022-11-06T13:18:53.666Z,3.00
2022-11-06T13:21:26.972Z,2.83
2022-11-06T13:24:03.769Z,2.80
2022-11-06T13:26:32.001Z,2.78
2022-11-06T13:29:05.387Z,2.70
2022-11-06T13:31:42.020Z,2.63
2022-11-06T13:34:22.014Z,2.22
2022-11-06T13:36:52.138Z,2.70
2022-11-06T13:39:27.096Z,2.72
2022-11-06T13:41:56.938Z,2.95
2022-11-06T13:44:26.398Z,2.38
2022-11-06T13:47:10.703Z,2.65
2022-11-06T13:49:47.937Z,2.67
2022-11-06T13:52:21.997Z,2.53
2022-11-06T13:55:13.874Z,2.78
2022-11-06T13:58:17.802Z,3.05
2022-11-06T14:01:11.336Z,2.70
2022-11-06T14:03:43.895Z,2.75
2022-11-06T14:06:21.070Z,2.67
2022-11-06T14:08:55.553Z,2.70
2022-11-06T14:11:35.518Z,2.30
2022-11-06T14:14:15.136Z,2.75
2022-11-06T14:16:45.207Z,3.35
2022-11-06T14:19:24.141Z,2.30
2022-11-06T14:21:55.175Z,2.78
2022-11-06T14:24:33.003Z,3.70
2022-11-06T14:27:30.292Z,3.00
2022-11-06T14:30:20.378Z,2.78
2022-11-06T14:32:48.882Z,2.47
2022-11-06T14:35:29.170Z,2.33
2022-11-06T14:38:20.281Z,2.45
2022-11-06T14:40:48.841Z,2.75
2022-11-06T14:43:29.899Z,2.63
2022-11-06T14:46:05.498Z,2.80
2022-11-06T14:48:45.755Z,3.00
2022-11-06T14:51:16.235Z,2.50
2022-11-06T14:53:51.060Z,1.85
2022-11-06T14:56:27.375Z,1.98
2022-11-06T14:59:06.091Z,2.45
2022-11-06T15:01:36.516Z,2.20
2022-11-06T15:04:20.458Z,2.58
2022-11-06T15:06:51.466Z,2.53
2022-11-06T15:09:25.790Z,2.20
2022-11-06T15:11:55.803Z,1.58
2022-11-06T15:14:23.575Z,3.85
2022-11-06T15:17:07.982Z,3.55
2022-11-06T15:19:46.569Z,4.20
2022-11-06T15:22:32.770Z,4.03
2022-11-06T15:25:21.934Z,3.40
2022-11-06T15:28:06.853Z,4.65
2022-11-06T15:31:06.313Z,3.10
2022-11-06T15:34:02.534Z,2.60
2022-11-06T15:39:41.919Z,3.10
2022-11-06T15:42:19.294Z,2.72
2022-11-06T15:44:49.725Z,2.90
2022-11-06T15:47:27.730Z,3.20
2022-11-06T15:50:14.960Z,2.50
2022-11-06T15:52:45.202Z,2.70
2022-11-06T15:55:23.291Z,3.13
2022-11-06T15:57:55.199Z,3.95
2022-11-06T16:00:25.814Z,4.07
2022-11-06T16:03:02.540Z,3.38
2022-11-06T16:05:33.793Z,3.20
2022-11-06T16:08:03.100Z,3.35
2022-11-06T16:10:33.235Z,3.65
2022-11-06T16:13:04.493Z,3.60
2022-11-06T16:15:45.982Z,3.63
2022-11-06T16:18:23.764Z,4.03
2022-11-06T16:21:19.405Z,3.20
2022-11-06T16:23:52.451Z,3.22
2022-11-06T16:26:32.918Z,3.50
2022-11-06T16:29:09.352Z,4.88
2022-11-06T16:31:40.832Z,4.78
2022-11-06T16:34:36.010Z,4.50
2022-11-06T16:37:30.059Z,4.60
2022-11-06T16:39:59.924Z,5.05
2022-11-06T16:42:35.570Z,4.78
2022-11-06T16:47:37.580Z,5.30
2022-11-06T16:50:44.376Z,5.63
2022-11-06T16:53:16.872Z,6.57
2022-11-06T16:55:53.768Z,8.98
2022-11-06T16:58:23.393Z,13.13
2022-11-06T17:01:07.300Z,12.80
2022-11-06T17:04:03.224Z,10.75
2022-11-06T17:06:36.954Z,10.80
2022-11-06T17:09:24.973Z,11.65
2022-11-06T17:11:55.582Z,11.35
2022-11-06T17:14:26.743Z,12.05
2022-11-06T17:16:58.302Z,10.90
2022-11-06T17:19:28.327Z,10.60
2022-11-06T17:21:58.793Z,10.65
2022-11-06T17:24:42.670Z,10.32
2022-11-06T17:27:13.404Z,11.25
2022-11-06T17:29:42.013Z,11.70
2022-11-06T17:32:11.455Z,12.50
2022-11-06T17:34:39.788Z,15.65
2022-11-06T17:37:11.738Z,15.38
2022-11-06T17:39:41.400Z,16.73
2022-11-06T17:42:11.898Z,18.02
2022-11-06T17:44:40.318Z,13.65
2022-11-06T17:47:10.818Z,13.90
2022-11-06T17:49:40.189Z,12.05
2022-11-06T17:52:09.856Z,13.70
2022-11-06T17:54:40.024Z,13.82
2022-11-06T17:57:08.901Z,14.07
2022-11-06T17:59:41.584Z,14.88
2022-11-06T18:02:30.058Z,14.32
2022-11-06T18:05:10.554Z,16.33
2022-11-06T18:07:41.296Z,18.48
2022-11-06T18:10:12.676Z,17.65
2022-11-06T18:12:41.261Z,16.25
2022-11-06T18:15:10.407Z,17.00
2022-11-06T18:17:45.201Z,17.95
2022-11-06T18:20:17.436Z,16.85
2022-11-06T18:22:46.075Z,16.58
2022-11-06T18:25:15.967Z,17.20
2022-11-06T18:27:44.635Z,15.82
2022-11-06T18:30:14.760Z,16.55
2022-11-06T18:32:44.598Z,14.20
2022-11-06T18:35:15.228Z,13.73
2022-11-06T18:37:45.231Z,13.20
2022-11-06T18:40:14.570Z,11.82
2022-11-06T18:42:44.052Z,10.73
2022-11-06T18:45:13.051Z,11.88
2022-11-06T18:47:42.640Z,11.77
2022-11-06T18:50:13.786Z,11.52
2022-11-06T18:52:57.506Z,11.50
2022-11-06T18:55:29.658Z,11.45
2022-11-06T18:57:59.853Z,20.90
2022-11-06T19:00:28.773Z,20.92
2022-11-06T19:02:58.863Z,16.13
2022-11-06T19:05:29.333Z,13.95
2022-11-06T19:08:00.517Z,13.25
2022-11-06T19:10:30.199Z,11.23
2022-11-06T19:13:03.350Z,11.68
2022-11-06T19:15:33.243Z,12.70
2022-11-06T19:18:03.429Z,12.10
2022-11-06T19:20:32.490Z,15.82
2022-11-06T19:23:02.821Z,14.95
2022-11-06T19:25:31.145Z,13.02
2022-11-06T19:28:05.208Z,15.25
2022-11-06T19:30:34.514Z,16.83
2022-11-06T19:33:04.751Z,15.90
2022-11-06T19:35:33.673Z,16.05
2022-11-06T19:38:02.858Z,25.83
2022-11-06T19:40:31.717Z,21.35
2022-11-06T19:43:01.097Z,16.85
2022-11-06T19:45:30.326Z,18.85
2022-11-06T19:48:00.328Z,19.67
2022-11-06T19:50:58.016Z,22.27
2022-11-06T19:53:22.241Z,12.85
2022-11-06T19:55:52.560Z,11.63
2022-11-06T19:58:25.747Z,6.28
2022-11-06T20:00:54.321Z,8.98
2022-11-06T20:03:24.609Z,9.75
2022-11-06T20:05:57.291Z,8.60
2022-11-06T20:08:32.005Z,8.55
2022-11-06T20:11:06.115Z,8.25
2022-11-06T20:13:37.210Z,8.18
2022-11-06T20:16:12.356Z,8.27
2022-11-06T20:18:40.914Z,12.95
2022-11-06T20:21:11.885Z,15.88
2022-11-06T20:23:42.771Z,17.35
2022-11-06T20:26:11.906Z,17.20
2022-11-06T20:28:41.161Z,17.70
2022-11-06T20:31:13.203Z,14.98
2022-11-06T20:33:43.040Z,17.02
2022-11-06T20:36:23.926Z,14.10
2022-11-06T20:39:01.154Z,9.60
2022-11-06T20:41:30.459Z,8.55
2022-11-06T20:43:59.997Z,14.20
2022-11-06T20:46:30.669Z,8.43
2022-11-06T20:49:00.118Z,10.93
2022-11-06T20:51:32.120Z,9.57
2022-11-06T20:54:06.002Z,7.90
2022-11-06T20:56:34.697Z,8.40
2022-11-06T20:59:03.349Z,7.03
2022-11-06T21:01:32.002Z,6.40
2022-11-06T21:04:01.098Z,7.60
2022-11-06T21:06:30.966Z,7.30
2022-11-06T21:08:59.539Z,8.80
2022-11-06T21:11:28.768Z,8.65
2022-11-06T21:13:57.216Z,9.15
2022-11-06T21:16:28.951Z,9.40
2022-11-06T21:18:59.579Z,9.77
2022-11-06T21:21:30.031Z,9.50
2022-11-06T21:23:58.663Z,9.70
2022-11-06T21:26:32.887Z,8.10
2022-11-06T21:29:03.025Z,7.13
2022-11-06T21:31:34.405Z,8.15
2022-11-06T21:34:03.742Z,8.18
2022-11-06T21:36:37.041Z,7.38
2022-11-06T21:39:08.271Z,7.65
2022-11-06T21:41:38.768Z,7.40
2022-11-06T21:44:08.358Z,7.07
2022-11-06T21:46:42.713Z,7.22
2022-11-06T21:49:13.634Z,7.17
2022-11-06T21:51:41.286Z,8.43
2022-11-06T21:54:30.930Z,8.00
2022-11-06T21:56:58.520Z,6.72
2022-11-06T21:59:27.974Z,7.53
2022-11-06T22:01:57.739Z,9.80
2022-11-06T22:04:25.340Z,7.13
2022-11-06T22:06:52.777Z,7.72
2022-11-06T22:09:24.763Z,7.47
2022-11-06T22:11:52.813Z,6.60
2022-11-06T22:14:20.273Z,8.52
2022-11-06T22:16:47.868Z,7.13
2022-11-06T22:19:17.673Z,7.20
2022-11-06T22:21:45.187Z,7.07
2022-11-06T22:24:13.558Z,7.25
2022-11-06T22:26:41.007Z,7.72
2022-11-06T22:29:11.529Z,8.30
2022-11-06T22:31:38.607Z,8.65
2022-11-06T22:34:13.124Z,8.77
2022-11-06T22:36:41.493Z,7.88
2022-11-06T22:39:12.642Z,8.55
2022-11-06T22:41:40.135Z,8.18
2022-11-06T22:44:07.716Z,7.80
2022-11-06T22:46:35.363Z,7.38
2022-11-06T22:49:04.263Z,8.32
2022-11-06T22:51:33.054Z,7.18
2022-11-06T22:54:03.593Z,8.32
2022-11-06T22:56:31.519Z,7.18
2022-11-06T22:59:03.000Z,8.48
2022-11-06T23:01:40.322Z,8.38
2022-11-06T23:04:15.185Z,8.15
2022-11-06T23:06:45.782Z,8.38
2022-11-06T23:09:13.950Z,8.10
2022-11-06T23:11:46.328Z,8.05
2022-11-06T23:14:13.372Z,7.43
2022-11-06T23:17:00.580Z,8.57
2022-11-06T23:19:30.200Z,8.02
2022-11-06T23:22:16.163Z,8.23
2022-11-06T23:24:43.445Z,7.68
2022-11-06T23:27:11.731Z,7.97
2022-11-06T23:29:39.472Z,8.02
2022-11-06T23:32:10.638Z,7.72
2022-11-06T23:34:37.657Z,7.85
2022-11-06T23:37:05.465Z,7.88
2022-11-06T23:39:32.721Z,7.95
2022-11-06T23:42:02.126Z,8.00
2022-11-06T23:44:47.808Z,8.00
2022-11-06T23:47:15.131Z,8.13
2022-11-06T23:49:42.079Z,8.50
2022-11-06T23:52:09.455Z,8.13
2022-11-06T23:54:38.835Z,7.70
2022-11-06T23:57:08.059Z,8.07
2022-11-06T23:59:35.704Z,7.70
